createdAt,value
2022-10-29T00:00:17.279Z,23.9100
2022-10-29T00:01:19.579Z,23.9100
2022-10-29T00:02:21.727Z,23.9000
2022-10-29T00:03:23.930Z,23.9000
2022-10-29T00:04:25.953Z,23.8900
2022-10-29T00:05:28.121Z,23.8900
2022-10-29T00:06:30.243Z,23.9000
2022-10-29T00:07:32.386Z,23.8900
2022-10-29T00:08:32.404Z,23.8900
2022-10-29T00:08:49.527Z,23.8800
2022-10-29T00:10:49.479Z,23.8700
2022-10-29T00:11:53.777Z,23.8700
2022-10-29T00:12:53.774Z,23.8700
2022-10-29T00:13:58.057Z,23.8800
2022-10-29T00:14:58.044Z,23.8800
2022-10-29T00:16:00.210Z,23.8700
2022-10-29T00:17:02.385Z,23.8600
2022-10-29T00:18:04.578Z,23.8700
2022-10-29T00:19:06.809Z,23.8600
2022-10-29T00:21:08.993Z,23.8500
2022-10-29T00:22:11.182Z,23.8500
2022-10-29T00:23:13.385Z,23.8500
2022-10-29T00:24:15.584Z,23.8500
2022-10-29T00:25:17.742Z,23.8400
2022-10-29T00:26:19.931Z,23.8400
2022-10-29T00:27:22.128Z,23.8400
2022-10-29T00:28:24.294Z,23.8400
2022-10-29T00:29:26.516Z,23.8400
2022-10-29T00:30:28.653Z,23.8400
2022-10-29T00:31:30.928Z,23.8400
2022-10-29T00:32:33.003Z,23.8300
2022-10-29T00:33:35.178Z,23.8300
2022-10-29T00:34:37.420Z,23.8300
2022-10-29T00:35:39.574Z,23.8400
2022-10-29T00:36:41.773Z,23.8300
2022-10-29T00:37:43.967Z,23.8200
2022-10-29T00:38:46.197Z,23.8300
2022-10-29T00:39:48.438Z,23.8200
2022-10-29T00:40:50.697Z,23.8200
2022-10-29T00:41:52.920Z,23.8200
2022-10-29T00:42:53.033Z,23.8200
2022-10-29T00:43:55.305Z,23.8000
2022-10-29T00:44:57.595Z,23.8000
2022-10-29T00:45:59.784Z,23.8000
2022-10-29T00:47:02.068Z,23.7900
2022-10-29T00:48:04.328Z,23.8000
2022-10-29T00:48:43.525Z,23.7400
2022-10-29T00:49:45.201Z,23.7700
2022-10-29T00:50:47.336Z,23.7800
2022-10-29T00:51:49.409Z,23.7800
2022-10-29T00:52:51.552Z,23.7900
2022-10-29T00:53:53.789Z,23.8000
2022-10-29T00:54:55.967Z,23.8000
2022-10-29T00:55:58.180Z,23.7900
2022-10-29T00:57:00.341Z,23.7800
2022-10-29T00:58:02.549Z,23.7700
2022-10-29T00:59:04.757Z,23.7700
2022-10-29T01:00:06.973Z,23.7700
2022-10-29T01:01:09.222Z,23.7700
2022-10-29T01:02:11.414Z,23.7700
2022-10-29T01:03:13.612Z,23.7600
2022-10-29T01:04:15.721Z,23.7600
2022-10-29T01:05:17.934Z,23.7600
2022-10-29T01:06:20.199Z,23.7600
2022-10-29T01:07:20.222Z,23.7700
2022-10-29T01:08:22.412Z,23.7700
2022-10-29T01:09:24.651Z,23.7600
2022-10-29T01:10:26.853Z,23.7600
2022-10-29T01:11:29.082Z,23.7500
2022-10-29T01:12:31.272Z,23.7500
2022-10-29T01:13:33.500Z,23.7500
2022-10-29T01:14:35.711Z,23.7600
2022-10-29T01:15:37.931Z,23.7600
2022-10-29T01:16:40.140Z,23.7500
2022-10-29T01:17:42.316Z,23.7400
2022-10-29T01:18:44.596Z,23.7500
2022-10-29T01:19:46.713Z,23.7500
2022-10-29T01:20:48.927Z,23.7400
2022-10-29T01:21:51.118Z,23.7400
2022-10-29T01:22:53.264Z,23.7300
2022-10-29T01:23:55.454Z,23.7300
2022-10-29T01:24:57.653Z,23.7300
2022-10-29T01:25:57.650Z,23.7200
2022-10-29T01:26:59.818Z,23.7200
2022-10-29T01:28:01.961Z,23.7200
2022-10-29T01:29:04.208Z,23.7100
2022-10-29T01:30:06.424Z,23.6900
2022-10-29T01:31:08.591Z,23.6900
2022-10-29T01:32:10.851Z,23.6900
2022-10-29T01:33:13.041Z,23.6900
2022-10-29T01:34:15.264Z,23.6900
2022-10-29T01:35:17.496Z,23.6900
2022-10-29T01:36:19.717Z,23.6900
2022-10-29T01:37:21.990Z,23.6900
2022-10-29T01:38:24.169Z,23.6900
2022-10-29T01:39:26.410Z,23.6900
2022-10-29T01:40:28.652Z,23.6800
2022-10-29T01:41:28.735Z,23.6800
2022-10-29T01:42:31.010Z,23.6800
2022-10-29T01:43:33.209Z,23.6700
2022-10-29T01:44:35.419Z,23.6600
2022-10-29T01:45:37.679Z,23.6600
2022-10-29T01:46:39.922Z,23.6300
2022-10-29T01:47:41.076Z,23.5700
2022-10-29T01:48:43.264Z,23.5000
2022-10-29T01:49:45.539Z,23.4500
2022-10-29T01:50:47.802Z,23.4300
2022-10-29T01:51:50.036Z,23.4100
2022-10-29T01:52:52.280Z,23.4000
2022-10-29T01:53:54.488Z,23.3800
2022-10-29T01:54:56.760Z,23.3800
2022-10-29T01:55:59.059Z,23.3800
2022-10-29T01:58:14.428Z,23.4800
2022-10-29T01:59:28.758Z,23.5500
2022-10-29T02:00:18.664Z,23.5700
2022-10-29T02:01:20.959Z,23.5900
2022-10-29T02:02:23.088Z,23.6000
2022-10-29T02:03:25.351Z,23.6000
2022-10-29T02:04:27.525Z,23.6200
2022-10-29T02:05:29.755Z,23.6000
2022-10-29T02:06:32.005Z,23.6100
2022-10-29T02:07:34.203Z,23.6100
2022-10-29T02:08:36.415Z,23.6100
2022-10-29T02:09:38.613Z,23.6100
2022-10-29T02:10:38.730Z,23.6000
2022-10-29T02:11:41.023Z,23.6000
2022-10-29T02:12:43.244Z,23.6100
2022-10-29T02:13:45.518Z,23.6100
2022-10-29T02:14:47.715Z,23.6100
2022-10-29T02:15:49.926Z,23.6100
2022-10-29T02:16:52.188Z,23.6100
2022-10-29T02:17:54.666Z,23.6100
2022-10-29T02:18:56.639Z,23.6100
2022-10-29T02:19:58.810Z,23.6000
2022-10-29T02:21:01.000Z,23.6000
2022-10-29T02:22:03.235Z,23.6000
2022-10-29T02:23:03.327Z,23.6000
2022-10-29T02:24:05.607Z,23.6000
2022-10-29T02:25:07.817Z,23.5900
2022-10-29T02:26:10.023Z,23.5800
2022-10-29T02:27:12.277Z,23.5800
2022-10-29T02:28:14.530Z,23.5800
2022-10-29T02:29:16.748Z,23.5900
2022-10-29T02:30:18.927Z,23.5900
2022-10-29T02:31:21.152Z,23.5900
2022-10-29T02:32:23.375Z,23.5900
2022-10-29T02:33:25.592Z,23.5800
2022-10-29T02:34:25.714Z,23.5900
2022-10-29T02:35:27.885Z,23.5900
2022-10-29T02:36:30.065Z,23.5700
2022-10-29T02:37:32.231Z,23.5600
2022-10-29T02:38:34.423Z,23.5700
2022-10-29T02:39:36.653Z,23.5600
2022-10-29T02:40:38.793Z,23.5500
2022-10-29T02:41:40.977Z,23.5600
2022-10-29T02:42:43.182Z,23.5400
2022-10-29T02:43:45.343Z,23.5300
2022-10-29T02:44:47.579Z,23.5400
2022-10-29T02:45:49.705Z,23.5300
2022-10-29T02:46:51.824Z,23.5400
2022-10-29T02:47:54.342Z,23.5400
2022-10-29T02:48:56.151Z,23.5300
2022-10-29T02:49:58.340Z,23.5200
2022-10-29T02:51:00.487Z,23.5200
2022-10-29T02:52:02.658Z,23.5200
2022-10-29T02:53:04.834Z,23.5100
2022-10-29T02:54:07.035Z,23.5100
2022-10-29T02:55:09.230Z,23.5200
2022-10-29T02:56:11.316Z,23.5300
2022-10-29T02:57:13.446Z,23.5200
2022-10-29T02:58:15.682Z,23.5100
2022-10-29T02:59:17.836Z,23.5000
2022-10-29T03:00:17.901Z,23.5100
2022-10-29T03:01:20.205Z,23.5000
2022-10-29T03:02:22.472Z,23.4900
2022-10-29T03:03:24.488Z,23.4900
2022-10-29T03:04:26.695Z,23.4900
2022-10-29T03:05:28.887Z,23.4900
2022-10-29T03:06:31.061Z,23.4900
2022-10-29T03:07:33.261Z,23.5000
2022-10-29T03:08:35.476Z,23.4900
2022-10-29T03:09:37.673Z,23.4900
2022-10-29T03:10:39.923Z,23.4900
2022-10-29T03:11:42.126Z,23.4800
2022-10-29T03:12:44.333Z,23.4800
2022-10-29T03:13:46.575Z,23.4700
2022-10-29T03:14:48.760Z,23.4600
2022-10-29T03:15:48.887Z,23.4700
2022-10-29T03:16:51.061Z,23.4600
2022-10-29T03:17:53.557Z,23.4600
2022-10-29T03:18:55.507Z,23.4700
2022-10-29T03:19:57.725Z,23.4600
2022-10-29T03:20:59.975Z,23.4500
2022-10-29T03:22:02.136Z,23.4400
2022-10-29T03:23:04.354Z,23.4400
2022-10-29T03:24:06.575Z,23.4500
2022-10-29T03:25:08.774Z,23.4500
2022-10-29T03:26:11.033Z,23.4600
2022-10-29T03:27:13.198Z,23.4600
2022-10-29T03:28:15.430Z,23.4600
2022-10-29T03:29:17.682Z,23.4500
2022-10-29T03:30:17.685Z,23.4500
2022-10-29T03:31:19.953Z,23.4500
2022-10-29T03:32:22.133Z,23.4400
2022-10-29T03:33:24.357Z,23.4400
2022-10-29T03:34:26.537Z,23.4400
2022-10-29T03:35:28.834Z,23.4300
2022-10-29T03:36:31.000Z,23.4400
2022-10-29T03:37:33.188Z,23.4300
2022-10-29T03:38:35.437Z,23.4300
2022-10-29T03:39:37.672Z,23.4100
2022-10-29T03:40:39.892Z,23.4200
2022-10-29T03:41:42.126Z,23.4200
2022-10-29T03:42:44.327Z,23.4200
2022-10-29T03:43:44.468Z,23.4300
2022-10-29T03:44:46.625Z,23.4200
2022-10-29T03:45:48.836Z,23.4200
2022-10-29T03:46:51.119Z,23.4100
2022-10-29T03:47:53.667Z,23.4100
2022-10-29T03:48:55.644Z,23.3900
2022-10-29T03:49:57.928Z,23.3900
2022-10-29T03:51:00.222Z,23.3900
2022-10-29T03:52:02.535Z,23.3900
2022-10-29T03:53:02.626Z,23.3900
2022-10-29T03:54:04.886Z,23.3900
2022-10-29T03:55:07.143Z,23.3900
2022-10-29T03:56:09.401Z,23.4000
2022-10-29T03:57:11.693Z,23.3800
2022-10-29T03:58:13.863Z,23.3800
2022-10-29T03:59:16.070Z,23.3800
2022-10-29T04:00:18.294Z,23.3800
2022-10-29T04:01:20.627Z,23.3800
2022-10-29T04:02:22.782Z,23.3500
2022-10-29T04:03:24.767Z,23.3400
2022-10-29T04:04:26.956Z,23.3500
2022-10-29T04:05:29.162Z,23.3500
2022-10-29T04:06:31.325Z,23.3400
2022-10-29T04:07:31.427Z,23.3400
2022-10-29T04:08:33.598Z,23.3500
2022-10-29T04:09:35.818Z,23.3500
2022-10-29T04:10:38.027Z,23.3400
2022-10-29T04:11:40.240Z,23.3400
2022-10-29T04:12:42.471Z,23.3400
2022-10-29T04:13:44.658Z,23.3400
2022-10-29T04:14:46.927Z,23.3200
2022-10-29T04:15:49.121Z,23.3200
2022-10-29T04:16:51.322Z,23.3000
2022-10-29T04:17:54.039Z,23.3100
2022-10-29T04:18:55.709Z,23.3000
2022-10-29T04:19:57.840Z,23.3100
2022-10-29T04:23:54.670Z,23.2800
2022-10-29T04:28:42.397Z,23.2500
2022-10-29T04:29:15.268Z,23.2500
2022-10-29T04:30:17.506Z,23.2700
2022-10-29T04:31:19.742Z,23.2700
2022-10-29T04:32:21.923Z,23.2600
2022-10-29T04:33:24.157Z,23.2700
2022-10-29T04:34:26.335Z,23.2800
2022-10-29T04:35:28.571Z,23.2900
2022-10-29T04:36:30.718Z,23.2900
2022-10-29T04:37:32.909Z,23.2900
2022-10-29T04:38:35.126Z,23.2800
2022-10-29T04:39:37.262Z,23.2800
2022-10-29T04:40:39.443Z,23.2800
2022-10-29T04:41:41.570Z,23.2800
2022-10-29T04:42:43.710Z,23.2700
2022-10-29T04:43:45.857Z,23.2700
2022-10-29T04:44:47.968Z,23.2800
2022-10-29T04:45:50.080Z,23.2700
2022-10-29T04:46:50.138Z,23.2600
2022-10-29T04:47:52.275Z,23.2600
2022-10-29T04:48:54.598Z,23.2600
2022-10-29T04:49:56.616Z,23.2600
2022-10-29T04:50:58.791Z,23.2700
2022-10-29T04:52:00.973Z,23.2700
2022-10-29T04:53:03.159Z,23.2600
2022-10-29T04:54:05.375Z,23.2500
2022-10-29T04:55:07.528Z,23.2300
2022-10-29T04:56:09.704Z,23.2300
2022-10-29T04:57:11.906Z,23.2400
2022-10-29T04:58:14.074Z,23.2500
2022-10-29T04:59:16.302Z,23.2500
2022-10-29T05:00:18.920Z,23.2500
2022-10-29T05:01:20.839Z,23.2500
2022-10-29T05:02:22.762Z,23.2400
2022-10-29T05:03:22.797Z,23.2400
2022-10-29T05:04:25.029Z,23.2600
2022-10-29T05:05:27.205Z,23.2600
2022-10-29T05:06:29.395Z,23.2500
2022-10-29T05:07:31.588Z,23.2500
2022-10-29T05:08:33.789Z,23.2400
2022-10-29T05:09:36.015Z,23.2500
2022-10-29T05:10:38.196Z,23.2600
2022-10-29T05:11:40.407Z,23.2600
2022-10-29T05:12:42.569Z,23.2500
2022-10-29T05:13:44.762Z,23.2500
2022-10-29T05:14:46.993Z,23.2500
2022-10-29T05:15:52.736Z,23.2500
2022-10-29T05:16:49.244Z,23.2400
2022-10-29T05:17:51.514Z,23.2500
2022-10-29T05:18:53.720Z,23.2500
2022-10-29T05:19:56.154Z,23.2400
2022-10-29T05:20:58.140Z,23.2400
2022-10-29T05:22:00.324Z,23.2500
2022-10-29T05:23:00.411Z,23.2500
2022-10-29T05:24:02.661Z,23.2400
2022-10-29T05:25:04.809Z,23.2500
2022-10-29T05:26:06.957Z,23.2500
2022-10-29T05:27:09.111Z,23.2500
2022-10-29T05:28:11.300Z,23.2400
2022-10-29T05:29:13.492Z,23.2300
2022-10-29T05:30:15.735Z,23.2200
2022-10-29T05:31:17.835Z,23.2100
2022-10-29T05:32:52.440Z,23.1800
2022-10-29T05:33:56.005Z,23.1900
2022-10-29T05:34:56.765Z,23.1800
2022-10-29T05:35:58.965Z,23.1900
2022-10-29T05:37:01.064Z,23.2000
2022-10-29T05:38:03.232Z,23.2000
2022-10-29T05:39:05.395Z,23.2000
2022-10-29T05:40:07.571Z,23.2000
2022-10-29T05:41:09.792Z,23.1900
2022-10-29T05:42:11.933Z,23.1800
2022-10-29T05:43:14.111Z,23.1600
2022-10-29T05:44:16.288Z,23.1600
2022-10-29T05:45:18.451Z,23.1700
2022-10-29T05:46:20.662Z,23.1700
2022-10-29T05:47:22.793Z,23.1700
2022-10-29T05:48:24.976Z,23.1700
2022-10-29T05:49:27.175Z,23.1700
2022-10-29T05:50:29.324Z,23.1600
2022-10-29T05:51:31.506Z,23.1700
2022-10-29T05:52:33.639Z,23.1700
2022-10-29T05:53:35.852Z,23.1600
2022-10-29T05:54:37.970Z,23.1500
2022-10-29T05:55:37.993Z,23.1500
2022-10-29T05:56:40.146Z,23.1600
2022-10-29T05:57:42.321Z,23.1400
2022-10-29T05:58:44.490Z,23.1500
2022-10-29T05:59:46.647Z,23.1400
2022-10-29T06:00:48.853Z,23.1500
2022-10-29T06:01:51.241Z,23.1400
2022-10-29T06:02:53.346Z,23.1500
2022-10-29T06:03:55.298Z,23.1400
2022-10-29T06:04:57.488Z,23.1300
2022-10-29T06:05:59.655Z,23.1300
2022-10-29T06:07:01.865Z,23.1200
2022-10-29T06:08:04.021Z,23.1200
2022-10-29T06:09:06.203Z,23.1400
2022-10-29T06:10:08.376Z,23.1400
2022-10-29T06:11:10.546Z,23.1300
2022-10-29T06:12:12.730Z,23.1200
2022-10-29T06:13:14.871Z,23.1200
2022-10-29T06:14:17.086Z,23.1000
2022-10-29T06:15:19.211Z,23.1100
2022-10-29T06:16:21.336Z,23.1100
2022-10-29T06:17:23.564Z,23.1100
2022-10-29T06:18:25.708Z,23.1100
2022-10-29T06:19:27.905Z,23.1100
2022-10-29T06:20:27.901Z,23.1100
2022-10-29T06:21:30.059Z,23.1100
2022-10-29T06:22:32.304Z,23.0900
2022-10-29T06:23:34.442Z,23.0900
2022-10-29T06:24:36.620Z,23.1000
2022-10-29T06:25:38.817Z,23.1000
2022-10-29T06:26:38.867Z,23.0900
2022-10-29T06:27:41.081Z,23.0900
2022-10-29T06:28:43.183Z,23.0900
2022-10-29T06:29:45.311Z,23.0900
2022-10-29T06:30:47.439Z,23.0800
2022-10-29T06:31:47.450Z,23.0700
2022-10-29T06:32:49.632Z,23.0800
2022-10-29T06:33:51.780Z,23.0800
2022-10-29T06:34:53.927Z,23.0700
2022-10-29T06:35:56.158Z,23.0700
2022-10-29T06:36:58.274Z,23.0800
2022-10-29T06:38:05.070Z,23.0700
2022-10-29T06:38:12.322Z,23.0600
2022-10-29T06:39:11.279Z,23.0500
2022-10-29T06:40:11.348Z,23.0600
2022-10-29T06:41:13.575Z,23.0700
2022-10-29T06:42:15.768Z,23.0700
2022-10-29T06:43:17.961Z,23.0600
2022-10-29T06:44:20.110Z,23.0600
2022-10-29T06:45:22.322Z,23.0500
2022-10-29T06:46:24.538Z,23.0600
2022-10-29T06:47:26.738Z,23.0600
2022-10-29T06:48:28.984Z,23.0600
2022-10-29T06:49:31.132Z,23.0500
2022-10-29T06:50:33.342Z,23.0600
2022-10-29T06:51:35.590Z,23.0600
2022-10-29T06:52:37.786Z,23.0700
2022-10-29T06:53:40.147Z,23.0700
2022-10-29T06:54:40.102Z,23.0800
2022-10-29T06:55:42.346Z,23.0700
2022-10-29T06:56:44.573Z,23.0600
2022-10-29T06:57:46.853Z,23.0600
2022-10-29T06:58:49.076Z,23.0700
2022-10-29T06:59:51.260Z,23.0700
2022-10-29T07:00:53.591Z,23.0600
2022-10-29T07:01:55.817Z,23.0700
2022-10-29T07:02:58.423Z,23.0500
2022-10-29T07:04:00.299Z,23.0500
2022-10-29T07:05:02.563Z,23.0600
2022-10-29T07:06:02.660Z,23.0800
2022-10-29T07:07:04.969Z,23.0700
2022-10-29T07:08:07.199Z,23.0600
2022-10-29T07:09:09.798Z,23.0700
2022-10-29T07:10:11.732Z,23.0700
2022-10-29T07:11:14.028Z,23.0700
2022-10-29T07:12:16.273Z,23.0800
2022-10-29T07:13:16.457Z,23.0700
2022-10-29T07:14:18.665Z,23.0700
2022-10-29T07:15:24.160Z,23.0800
2022-10-29T07:16:23.124Z,23.0700
2022-10-29T07:17:25.394Z,23.0700
2022-10-29T07:18:27.670Z,23.0900
2022-10-29T07:19:29.987Z,23.0700
2022-10-29T07:20:32.217Z,23.0800
2022-10-29T07:21:34.490Z,23.0700
2022-10-29T07:22:35.013Z,23.0700
2022-10-29T07:23:36.871Z,23.0800
2022-10-29T07:24:39.209Z,23.0800
2022-10-29T07:25:41.409Z,23.0800
2022-10-29T07:26:43.659Z,23.0800
2022-10-29T07:27:45.976Z,23.0700
2022-10-29T07:28:48.106Z,23.0700
2022-10-29T07:29:50.404Z,23.0600
2022-10-29T07:30:52.626Z,23.0400
2022-10-29T07:31:52.732Z,23.0600
2022-10-29T07:32:54.978Z,23.0700
2022-10-29T07:33:57.224Z,23.0800
2022-10-29T07:34:59.499Z,23.0800
2022-10-29T07:36:01.719Z,23.0900
2022-10-29T07:37:03.930Z,23.0900
2022-10-29T07:38:09.044Z,23.0800
2022-10-29T07:39:08.431Z,23.0600
2022-10-29T07:40:10.714Z,23.0800
2022-10-29T07:41:12.901Z,23.0900
2022-10-29T07:42:13.004Z,23.1000
2022-10-29T07:43:15.251Z,23.1100
2022-10-29T07:44:17.494Z,23.1100
2022-10-29T07:45:19.728Z,23.1100
2022-10-29T07:46:21.947Z,23.1100
2022-10-29T07:47:24.195Z,23.1100
2022-10-29T07:48:26.435Z,23.0900
2022-10-29T07:49:28.651Z,23.0800
2022-10-29T07:50:30.924Z,23.0800
2022-10-29T07:51:33.115Z,23.0800
2022-10-29T07:52:33.192Z,23.0900
2022-10-29T07:53:35.431Z,23.1000
2022-10-29T07:54:37.627Z,23.0900
2022-10-29T07:55:39.922Z,23.0800
2022-10-29T07:56:45.147Z,23.0800
2022-10-29T07:57:44.395Z,23.0700
2022-10-29T07:58:46.651Z,23.0800
2022-10-29T07:59:48.908Z,23.0900
2022-10-29T08:00:51.242Z,23.1000
2022-10-29T08:01:53.350Z,23.0900
2022-10-29T08:02:55.455Z,23.1000
2022-10-29T08:03:55.568Z,23.1000
2022-10-29T08:04:57.784Z,23.1100
2022-10-29T08:05:57.901Z,23.1200
2022-10-29T08:06:58.969Z,23.0500
2022-10-29T08:07:30.158Z,23.0000
2022-10-29T08:08:32.354Z,23.0200
2022-10-29T08:09:34.584Z,23.0500
2022-10-29T08:10:36.753Z,23.0500
2022-10-29T08:11:39.046Z,23.0600
2022-10-29T08:12:41.145Z,23.0800
2022-10-29T08:13:43.345Z,23.0900
2022-10-29T08:14:45.546Z,23.0800
2022-10-29T08:15:47.743Z,23.0700
2022-10-29T08:16:49.940Z,23.0800
2022-10-29T08:17:52.050Z,23.0900
2022-10-29T08:18:54.216Z,23.1000
2022-10-29T08:19:56.381Z,23.1000
2022-10-29T08:20:58.513Z,23.1100
2022-10-29T08:22:00.703Z,23.1000
2022-10-29T08:23:02.873Z,23.1000
2022-10-29T08:24:05.029Z,23.1000
2022-10-29T08:25:07.245Z,23.1100
2022-10-29T08:26:09.423Z,23.1100
2022-10-29T08:27:11.676Z,23.1100
2022-10-29T08:28:13.867Z,23.1100
2022-10-29T08:29:16.082Z,23.1100
2022-10-29T08:30:16.162Z,23.1000
2022-10-29T08:31:18.387Z,23.1000
2022-10-29T08:32:20.632Z,23.1200
2022-10-29T08:33:22.784Z,23.1200
2022-10-29T08:34:24.967Z,23.1100
2022-10-29T08:35:27.170Z,23.1100
2022-10-29T08:36:29.358Z,23.1000
2022-10-29T08:37:31.576Z,23.1000
2022-10-29T08:38:33.745Z,23.1000
2022-10-29T08:39:35.932Z,23.1100
2022-10-29T08:40:38.151Z,23.1100
2022-10-29T08:41:40.303Z,23.1100
2022-10-29T08:42:42.537Z,23.1000
2022-10-29T08:43:47.395Z,23.1000
2022-10-29T08:44:46.869Z,23.1000
2022-10-29T08:45:48.994Z,23.1100
2022-10-29T08:46:51.178Z,23.1100
2022-10-29T08:47:53.887Z,23.1200
2022-10-29T08:48:55.557Z,23.1300
2022-10-29T08:49:57.791Z,23.1300
2022-10-29T08:50:57.843Z,23.1300
2022-10-29T08:52:00.055Z,23.1300
2022-10-29T08:53:22.158Z,23.1400
2022-10-29T08:54:25.561Z,23.1200
2022-10-29T08:55:06.613Z,23.1200
2022-10-29T08:56:08.836Z,23.1200
2022-10-29T08:57:11.012Z,23.1300
2022-10-29T08:58:13.262Z,23.1300
2022-10-29T08:59:15.493Z,23.1400
2022-10-29T09:00:17.733Z,23.1500
2022-10-29T09:01:20.103Z,23.1600
2022-10-29T09:02:22.224Z,23.1600
2022-10-29T09:03:24.449Z,23.1600
2022-10-29T09:04:24.521Z,23.1600
2022-10-29T09:05:26.727Z,23.1700
2022-10-29T09:06:28.953Z,23.1700
2022-10-29T09:07:31.131Z,23.1700
2022-10-29T09:08:33.325Z,23.1700
2022-10-29T09:09:35.492Z,23.1700
2022-10-29T09:10:37.661Z,23.1700
2022-10-29T09:11:39.854Z,23.1700
2022-10-29T09:12:42.021Z,23.1800
2022-10-29T09:13:44.247Z,23.1800
2022-10-29T09:14:46.407Z,23.1800
2022-10-29T09:15:50.289Z,23.1900
2022-10-29T09:16:50.760Z,23.1700
2022-10-29T09:17:53.227Z,23.1900
2022-10-29T09:18:55.167Z,23.1900
2022-10-29T09:19:57.329Z,23.1900
2022-10-29T09:20:59.516Z,23.2000
2022-10-29T09:22:01.709Z,23.2000
2022-10-29T09:23:03.876Z,23.2000
2022-10-29T09:24:06.048Z,23.2000
2022-10-29T09:25:08.201Z,23.2100
2022-10-29T09:26:10.380Z,23.2200
2022-10-29T09:27:10.824Z,23.2200
2022-10-29T09:28:12.632Z,23.2200
2022-10-29T09:29:14.863Z,23.2200
2022-10-29T09:30:17.021Z,23.2300
2022-10-29T09:31:19.225Z,23.2400
2022-10-29T09:32:21.429Z,23.2400
2022-10-29T09:33:23.640Z,23.2400
2022-10-29T09:34:25.893Z,23.2400
2022-10-29T09:35:28.143Z,23.2500
2022-10-29T09:36:30.278Z,23.2600
2022-10-29T09:37:32.496Z,23.2700
2022-10-29T09:38:34.666Z,23.2700
2022-10-29T09:39:36.904Z,23.2700
2022-10-29T09:40:39.074Z,23.2700
2022-10-29T09:41:41.261Z,23.2700
2022-10-29T09:42:43.473Z,23.2900
2022-10-29T09:43:45.617Z,23.2900
2022-10-29T09:44:45.655Z,23.2800
2022-10-29T09:45:47.834Z,23.2900
2022-10-29T09:46:50.072Z,23.2800
2022-10-29T09:47:52.173Z,23.2900
2022-10-29T09:48:54.388Z,23.2900
2022-10-29T09:49:56.525Z,23.2900
2022-10-29T09:50:58.649Z,23.2900
2022-10-29T09:52:00.825Z,23.3000
2022-10-29T09:53:03.015Z,23.3000
2022-10-29T09:54:05.199Z,23.3000
2022-10-29T09:55:07.401Z,23.3100
2022-10-29T09:56:09.580Z,23.3200
2022-10-29T09:57:11.789Z,23.3200
2022-10-29T09:58:14.016Z,23.3200
2022-10-29T09:59:16.237Z,23.3200
2022-10-29T10:00:18.615Z,23.3300
2022-10-29T10:01:20.738Z,23.3300
2022-10-29T10:02:22.996Z,23.3400
2022-10-29T10:03:25.059Z,23.3500
2022-10-29T10:04:27.238Z,23.3500
2022-10-29T10:05:29.426Z,23.3500
2022-10-29T10:06:31.522Z,23.3600
2022-10-29T10:07:31.499Z,23.3700
2022-10-29T10:08:33.689Z,23.3700
2022-10-29T10:09:35.907Z,23.3700
2022-10-29T10:10:38.125Z,23.3700
2022-10-29T10:11:40.317Z,23.3800
2022-10-29T10:12:42.524Z,23.3900
2022-10-29T10:13:44.709Z,23.3900
2022-10-29T10:14:46.805Z,23.3900
2022-10-29T10:15:49.064Z,23.4000
2022-10-29T10:16:51.217Z,23.4000
2022-10-29T10:17:53.411Z,23.4000
2022-10-29T10:18:55.488Z,23.4100
2022-10-29T10:19:57.682Z,23.4200
2022-10-29T10:20:59.927Z,23.4100
2022-10-29T10:22:02.072Z,23.4200
2022-10-29T10:23:04.261Z,23.4300
2022-10-29T10:24:06.502Z,23.4400
2022-10-29T10:25:08.836Z,23.4400
2022-10-29T10:26:08.932Z,23.4400
2022-10-29T10:27:11.182Z,23.4500
2022-10-29T10:28:13.386Z,23.4500
2022-10-29T10:29:15.652Z,23.4600
2022-10-29T10:30:17.843Z,23.4600
2022-10-29T10:31:20.122Z,23.4600
2022-10-29T10:32:22.337Z,23.4600
2022-10-29T10:33:24.593Z,23.4700
2022-10-29T10:34:26.825Z,23.4700
2022-10-29T10:35:29.091Z,23.4800
2022-10-29T10:36:29.204Z,23.4800
2022-10-29T10:37:31.414Z,23.4800
2022-10-29T10:38:33.653Z,23.4800
2022-10-29T10:39:35.880Z,23.4800
2022-10-29T10:40:38.120Z,23.4900
2022-10-29T10:41:40.386Z,23.4900
2022-10-29T10:42:42.599Z,23.5000
2022-10-29T10:43:44.871Z,23.5100
2022-10-29T10:44:47.136Z,23.4900
2022-10-29T10:45:49.372Z,23.5000
2022-10-29T10:46:49.515Z,23.5100
2022-10-29T10:47:51.743Z,23.5100
2022-10-29T10:48:54.013Z,23.5000
2022-10-29T10:49:56.276Z,23.5100
2022-10-29T10:50:58.522Z,23.5100
2022-10-29T10:52:00.811Z,23.5200
2022-10-29T10:53:03.041Z,23.5300
2022-10-29T10:54:05.347Z,23.5400
2022-10-29T10:55:05.404Z,23.5400
2022-10-29T10:56:07.636Z,23.5500
2022-10-29T10:57:09.921Z,23.5500
2022-10-29T10:58:12.128Z,23.5500
2022-10-29T10:59:14.356Z,23.5600
2022-10-29T11:00:16.657Z,23.5600
2022-10-29T11:01:18.989Z,23.5600
2022-10-29T11:02:21.051Z,23.5600
2022-10-29T11:04:25.354Z,23.5700
2022-10-29T11:05:27.569Z,23.5800
2022-10-29T11:06:29.787Z,23.5800
2022-10-29T11:07:32.039Z,23.5800
2022-10-29T11:08:34.195Z,23.5800
2022-10-29T11:09:36.421Z,23.5800
2022-10-29T11:10:36.486Z,23.5900
2022-10-29T11:11:38.792Z,23.5900
2022-10-29T11:12:40.896Z,23.6000
2022-10-29T11:13:43.040Z,23.6100
2022-10-29T11:14:45.248Z,23.6100
2022-10-29T11:15:47.451Z,23.6100
2022-10-29T11:16:49.561Z,23.6100
2022-10-29T11:17:54.279Z,23.6200
2022-10-29T11:18:53.959Z,23.6100
2022-10-29T11:19:56.166Z,23.6200
2022-10-29T11:20:58.371Z,23.6200
2022-10-29T11:22:00.573Z,23.6400
2022-10-29T11:23:02.809Z,23.6500
2022-10-29T11:24:05.005Z,23.6500
2022-10-29T11:25:07.231Z,23.6500
2022-10-29T11:26:09.467Z,23.6500
2022-10-29T11:27:09.547Z,23.6600
2022-10-29T11:28:11.797Z,23.6600
2022-10-29T11:29:13.970Z,23.6600
2022-10-29T11:30:16.167Z,23.6600
2022-10-29T11:31:18.383Z,23.6600
2022-10-29T11:32:20.573Z,23.6700
2022-10-29T11:33:22.821Z,23.6700
2022-10-29T11:34:24.983Z,23.6700
2022-10-29T11:35:27.158Z,23.6800
2022-10-29T11:36:29.346Z,23.6800
2022-10-29T11:37:31.540Z,23.6900
2022-10-29T11:38:33.769Z,23.7000
2022-10-29T11:39:35.929Z,23.7000
2022-10-29T11:40:38.125Z,23.7000
2022-10-29T11:41:40.329Z,23.7100
2022-10-29T11:42:42.524Z,23.7100
2022-10-29T11:43:44.735Z,23.7200
2022-10-29T11:44:44.777Z,23.7200
2022-10-29T11:46:51.386Z,23.7000
2022-10-29T11:47:53.476Z,23.7200
2022-10-29T11:48:55.407Z,23.7200
2022-10-29T11:49:57.491Z,23.7300
2022-10-29T11:50:59.531Z,23.7400
2022-10-29T11:52:02.616Z,23.7500
2022-10-29T11:53:05.870Z,23.7500
2022-10-29T11:54:07.980Z,23.7500
2022-10-29T11:55:10.055Z,23.7600
2022-10-29T11:56:12.227Z,23.7600
2022-10-29T11:57:14.338Z,23.7700
2022-10-29T11:58:16.495Z,23.7700
2022-10-29T11:59:16.571Z,23.7700
2022-10-29T12:00:18.722Z,23.7800
2022-10-29T12:01:20.973Z,23.7900
2022-10-29T12:02:23.150Z,23.7900
2022-10-29T12:03:25.437Z,23.7900
2022-10-29T12:04:27.550Z,23.8000
2022-10-29T12:05:29.612Z,23.8000
2022-10-29T12:06:31.705Z,23.8100
2022-10-29T12:07:33.779Z,23.8200
2022-10-29T12:08:35.856Z,23.8300
2022-10-29T12:09:38.010Z,23.8400
2022-10-29T12:10:40.087Z,23.8300
2022-10-29T12:11:43.112Z,23.8400
2022-10-29T12:12:44.378Z,23.8300
2022-10-29T12:13:46.570Z,23.8200
2022-10-29T12:14:48.775Z,23.8100
2022-10-29T12:15:50.909Z,23.7900
2022-10-29T12:16:53.105Z,23.7700
2022-10-29T12:17:55.717Z,23.7500
2022-10-29T12:18:57.469Z,23.7300
2022-10-29T12:19:59.753Z,23.7100
2022-10-29T12:21:01.874Z,23.6800
2022-10-29T12:22:04.067Z,23.6400
2022-10-29T12:23:08.018Z,23.6200
2022-10-29T12:24:06.290Z,23.5800
2022-10-29T12:25:08.460Z,23.5700
2022-10-29T12:26:10.598Z,23.5600
2022-10-29T12:27:12.767Z,23.5600
2022-10-29T12:28:14.993Z,23.5500
2022-10-29T12:29:17.189Z,23.5500
2022-10-29T12:30:19.454Z,23.5600
2022-10-29T12:31:21.601Z,23.5400
2022-10-29T12:32:23.802Z,23.5300
2022-10-29T12:33:26.036Z,23.5100
2022-10-29T12:34:28.204Z,23.5100
2022-10-29T12:35:30.441Z,23.5100
2022-10-29T12:36:32.650Z,23.5000
2022-10-29T12:37:34.858Z,23.5100
2022-10-29T12:38:39.220Z,23.5100
2022-10-29T12:39:24.285Z,23.5200